sensor_id;sensor_type;location;lat;lon;timestamp;P1;durP1;ratioP1;P2;durP2;ratioP2
27003;SDS011;14546;47.590;19.022;2023-08-08T00:02:02;6.32;;;0.90;;
27003;SDS011;14546;47.590;19.022;2023-08-08T00:04:29;3.13;;;1.10;;
27003;SDS011;14546;47.590;19.022;2023-08-08T00:06:55;4.65;;;0.70;;
27003;SDS011;14546;47.590;19.022;2023-08-08T00:09:21;1.35;;;0.85;;
27003;SDS011;14546;47.590;19.022;2023-08-08T00:11:48;2.65;;;0.70;;
27003;SDS011;14546;47.590;19.022;2023-08-08T00:14:14;4.40;;;0.70;;
27003;SDS011;14546;47.590;19.022;2023-08-08T00:16:41;2.90;;;0.75;;
27003;SDS011;14546;47.590;19.022;2023-08-08T00:19:07;1.42;;;0.80;;
27003;SDS011;14546;47.590;19.022;2023-08-08T00:21:33;3.83;;;0.88;;
27003;SDS011;14546;47.590;19.022;2023-08-08T00:23:59;1.13;;;0.82;;
27003;SDS011;14546;47.590;19.022;2023-08-08T00:26:26;1.35;;;0.73;;
27003;SDS011;14546;47.590;19.022;2023-08-08T00:28:52;3.55;;;0.88;;
27003;SDS011;14546;47.590;19.022;2023-08-08T00:31:18;4.68;;;0.82;;
27003;SDS011;14546;47.590;19.022;2023-08-08T00:33:45;1.10;;;0.80;;
27003;SDS011;14546;47.590;19.022;2023-08-08T00:36:11;1.08;;;0.68;;
27003;SDS011;14546;47.590;19.022;2023-08-08T00:38:37;1.75;;;0.80;;
27003;SDS011;14546;47.590;19.022;2023-08-08T00:41:03;1.70;;;0.80;;
27003;SDS011;14546;47.590;19.022;2023-08-08T00:43:30;3.63;;;0.80;;
27003;SDS011;14546;47.590;19.022;2023-08-08T00:45:56;0.80;;;0.80;;
27003;SDS011;14546;47.590;19.022;2023-08-08T00:48:23;3.47;;;0.88;;
27003;SDS011;14546;47.590;19.022;2023-08-08T00:50:49;8.02;;;1.20;;
27003;SDS011;14546;47.590;19.022;2023-08-08T00:53:16;3.05;;;0.88;;
27003;SDS011;14546;47.590;19.022;2023-08-08T00:55:45;2.78;;;0.70;;
27003;SDS011;14546;47.590;19.022;2023-08-08T00:58:12;0.68;;;0.60;;
27003;SDS011;14546;47.590;19.022;2023-08-08T01:00:38;6.72;;;1.00;;
27003;SDS011;14546;47.590;19.022;2023-08-08T01:03:04;1.75;;;0.70;;
27003;SDS011;14546;47.590;19.022;2023-08-08T01:05:34;2.05;;;0.98;;
27003;SDS011;14546;47.590;19.022;2023-08-08T01:08:03;3.17;;;0.90;;
27003;SDS011;14546;47.590;19.022;2023-08-08T01:10:32;2.28;;;0.90;;
27003;SDS011;14546;47.590;19.022;2023-08-08T01:13:00;5.30;;;0.88;;
27003;SDS011;14546;47.590;19.022;2023-08-08T01:15:28;2.33;;;0.82;;
27003;SDS011;14546;47.590;19.022;2023-08-08T01:18:02;1.13;;;0.80;;
27003;SDS011;14546;47.590;19.022;2023-08-08T01:20:29;4.90;;;1.10;;
27003;SDS011;14546;47.590;19.022;2023-08-08T01:22:58;2.47;;;0.88;;
27003;SDS011;14546;47.590;19.022;2023-08-08T01:25:28;1.48;;;0.90;;
27003;SDS011;14546;47.590;19.022;2023-08-08T01:27:55;1.15;;;0.90;;
27003;SDS011;14546;47.590;19.022;2023-08-08T01:30:21;3.42;;;1.20;;
27003;SDS011;14546;47.590;19.022;2023-08-08T01:32:47;1.52;;;1.10;;
27003;SDS011;14546;47.590;19.022;2023-08-08T01:35:13;2.78;;;1.20;;
27003;SDS011;14546;47.590;19.022;2023-08-08T01:40:07;5.78;;;1.25;;
27003;SDS011;14546;47.590;19.022;2023-08-08T01:42:35;2.90;;;1.17;;
27003;SDS011;14546;47.590;19.022;2023-08-08T01:45:02;2.28;;;1.15;;
27003;SDS011;14546;47.590;19.022;2023-08-08T01:47:29;4.35;;;1.10;;
27003;SDS011;14546;47.590;19.022;2023-08-08T01:49:55;1.88;;;1.02;;
27003;SDS011;14546;47.590;19.022;2023-08-08T01:52:21;3.42;;;1.30;;
27003;SDS011;14546;47.590;19.022;2023-08-08T01:54:48;1.77;;;1.23;;
27003;SDS011;14546;47.590;19.022;2023-08-08T01:57:14;5.15;;;1.35;;
27003;SDS011;14546;47.590;19.022;2023-08-08T01:59:40;1.67;;;1.23;;
27003;SDS011;14546;47.590;19.022;2023-08-08T02:02:07;3.45;;;1.30;;
27003;SDS011;14546;47.590;19.022;2023-08-08T02:04:33;1.52;;;1.10;;
27003;SDS011;14546;47.590;19.022;2023-08-08T02:07:00;2.80;;;1.40;;
27003;SDS011;14546;47.590;19.022;2023-08-08T02:09:27;1.52;;;1.20;;
27003;SDS011;14546;47.590;19.022;2023-08-08T02:11:54;2.08;;;1.20;;
27003;SDS011;14546;47.590;19.022;2023-08-08T02:14:20;1.70;;;1.58;;
27003;SDS011;14546;47.590;19.022;2023-08-08T02:16:46;3.90;;;1.40;;
27003;SDS011;14546;47.590;19.022;2023-08-08T02:19:12;8.02;;;1.80;;
27003;SDS011;14546;47.590;19.022;2023-08-08T02:21:39;4.15;;;1.75;;
27003;SDS011;14546;47.590;19.022;2023-08-08T02:24:05;2.35;;;1.25;;
27003;SDS011;14546;47.590;19.022;2023-08-08T02:26:32;2.10;;;1.58;;
27003;SDS011;14546;47.590;19.022;2023-08-08T02:28:58;2.90;;;1.40;;
27003;SDS011;14546;47.590;19.022;2023-08-08T02:31:24;12.15;;;1.75;;
27003;SDS011;14546;47.590;19.022;2023-08-08T02:33:50;5.55;;;1.80;;
27003;SDS011;14546;47.590;19.022;2023-08-08T02:36:17;6.20;;;1.65;;
27003;SDS011;14546;47.590;19.022;2023-08-08T02:38:44;2.47;;;1.40;;
27003;SDS011;14546;47.590;19.022;2023-08-08T02:41:10;2.33;;;1.35;;
27003;SDS011;14546;47.590;19.022;2023-08-08T02:43:36;7.35;;;1.50;;
27003;SDS011;14546;47.590;19.022;2023-08-08T02:46:03;2.33;;;1.63;;
27003;SDS011;14546;47.590;19.022;2023-08-08T02:48:29;5.07;;;1.35;;
27003;SDS011;14546;47.590;19.022;2023-08-08T02:50:56;1.98;;;1.33;;
27003;SDS011;14546;47.590;19.022;2023-08-08T02:53:23;5.50;;;1.30;;
27003;SDS011;14546;47.590;19.022;2023-08-08T02:55:50;3.42;;;1.20;;
27003;SDS011;14546;47.590;19.022;2023-08-08T02:58:16;2.83;;;1.60;;
27003;SDS011;14546;47.590;19.022;2023-08-08T03:00:42;4.78;;;1.40;;
27003;SDS011;14546;47.590;19.022;2023-08-08T03:03:08;2.33;;;1.35;;
27003;SDS011;14546;47.590;19.022;2023-08-08T03:05:34;3.72;;;1.70;;
27003;SDS011;14546;47.590;19.022;2023-08-08T03:08:01;4.22;;;1.75;;
27003;SDS011;14546;47.590;19.022;2023-08-08T03:10:28;6.10;;;1.60;;
27003;SDS011;14546;47.590;19.022;2023-08-08T03:12:54;1.85;;;1.40;;
27003;SDS011;14546;47.590;19.022;2023-08-08T03:15:21;6.13;;;1.40;;
27003;SDS011;14546;47.590;19.022;2023-08-08T03:17:47;3.58;;;1.13;;
27003;SDS011;14546;47.590;19.022;2023-08-08T03:20:13;2.90;;;1.33;;
27003;SDS011;14546;47.590;19.022;2023-08-08T03:22:40;1.88;;;1.20;;
27003;SDS011;14546;47.590;19.022;2023-08-08T03:25:08;2.35;;;1.40;;
27003;SDS011;14546;47.590;19.022;2023-08-08T03:27:34;1.27;;;1.17;;
27003;SDS011;14546;47.590;19.022;2023-08-08T03:30:02;3.65;;;1.35;;
27003;SDS011;14546;47.590;19.022;2023-08-08T03:32:28;2.13;;;1.40;;
27003;SDS011;14546;47.590;19.022;2023-08-08T03:34:56;4.30;;;1.50;;
27003;SDS011;14546;47.590;19.022;2023-08-08T03:37:22;2.03;;;1.42;;
27003;SDS011;14546;47.590;19.022;2023-08-08T03:39:48;2.50;;;1.50;;
27003;SDS011;14546;47.590;19.022;2023-08-08T03:42:15;4.13;;;1.77;;
27003;SDS011;14546;47.590;19.022;2023-08-08T03:44:41;7.82;;;1.75;;
27003;SDS011;14546;47.590;19.022;2023-08-08T03:47:07;3.63;;;1.27;;
27003;SDS011;14546;47.590;19.022;2023-08-08T03:49:33;3.72;;;1.40;;
27003;SDS011;14546;47.590;19.022;2023-08-08T03:51:59;3.92;;;1.17;;
27003;SDS011;14546;47.590;19.022;2023-08-08T03:54:26;2.58;;;1.20;;
27003;SDS011;14546;47.590;19.022;2023-08-08T03:56:52;2.28;;;1.50;;
27003;SDS011;14546;47.590;19.022;2023-08-08T03:59:18;5.07;;;1.17;;
27003;SDS011;14546;47.590;19.022;2023-08-08T04:01:45;4.38;;;1.70;;
27003;SDS011;14546;47.590;19.022;2023-08-08T04:04:11;3.75;;;1.30;;
27003;SDS011;14546;47.590;19.022;2023-08-08T04:06:36;1.83;;;1.13;;
27003;SDS011;14546;47.590;19.022;2023-08-08T04:09:04;2.13;;;1.30;;
27003;SDS011;14546;47.590;19.022;2023-08-08T04:11:30;3.42;;;1.52;;
27003;SDS011;14546;47.590;19.022;2023-08-08T04:13:58;3.25;;;1.77;;
27003;SDS011;14546;47.590;19.022;2023-08-08T04:16:24;3.33;;;1.27;;
27003;SDS011;14546;47.590;19.022;2023-08-08T04:18:51;1.98;;;1.23;;
27003;SDS011;14546;47.590;19.022;2023-08-08T04:21:17;5.03;;;1.50;;
27003;SDS011;14546;47.590;19.022;2023-08-08T04:23:44;2.60;;;1.48;;
27003;SDS011;14546;47.590;19.022;2023-08-08T04:26:10;1.85;;;1.42;;
27003;SDS011;14546;47.590;19.022;2023-08-08T04:28:36;2.67;;;1.30;;
27003;SDS011;14546;47.590;19.022;2023-08-08T04:31:02;2.40;;;1.52;;
27003;SDS011;14546;47.590;19.022;2023-08-08T04:33:29;3.45;;;1.40;;
27003;SDS011;14546;47.590;19.022;2023-08-08T04:35:55;3.88;;;1.42;;
27003;SDS011;14546;47.590;19.022;2023-08-08T04:38:22;4.10;;;1.95;;
27003;SDS011;14546;47.590;19.022;2023-08-08T04:40:48;1.98;;;1.40;;
27003;SDS011;14546;47.590;19.022;2023-08-08T04:43:14;2.65;;;1.63;;
27003;SDS011;14546;47.590;19.022;2023-08-08T04:45:41;2.33;;;1.40;;
27003;SDS011;14546;47.590;19.022;2023-08-08T04:48:08;6.15;;;1.75;;
27003;SDS011;14546;47.590;19.022;2023-08-08T04:50:35;4.78;;;1.85;;
27003;SDS011;14546;47.590;19.022;2023-08-08T04:53:02;4.32;;;1.45;;
27003;SDS011;14546;47.590;19.022;2023-08-08T04:55:28;3.70;;;1.45;;
27003;SDS011;14546;47.590;19.022;2023-08-08T04:57:55;4.72;;;1.50;;
27003;SDS011;14546;47.590;19.022;2023-08-08T05:00:22;2.75;;;1.48;;
27003;SDS011;14546;47.590;19.022;2023-08-08T05:02:49;2.88;;;1.48;;
27003;SDS011;14546;47.590;19.022;2023-08-08T05:05:15;5.03;;;1.67;;
27003;SDS011;14546;47.590;19.022;2023-08-08T05:07:42;4.13;;;1.38;;
27003;SDS011;14546;47.590;19.022;2023-08-08T05:10:08;4.47;;;1.75;;
27003;SDS011;14546;47.590;19.022;2023-08-08T05:12:34;2.90;;;1.58;;
27003;SDS011;14546;47.590;19.022;2023-08-08T05:15:01;2.97;;;1.60;;
27003;SDS011;14546;47.590;19.022;2023-08-08T05:17:29;6.78;;;1.70;;
27003;SDS011;14546;47.590;19.022;2023-08-08T05:19:57;3.95;;;1.60;;
27003;SDS011;14546;47.590;19.022;2023-08-08T05:22:24;2.10;;;1.50;;
27003;SDS011;14546;47.590;19.022;2023-08-08T05:24:50;4.68;;;1.63;;
27003;SDS011;14546;47.590;19.022;2023-08-08T05:27:16;4.63;;;1.40;;
27003;SDS011;14546;47.590;19.022;2023-08-08T05:29:42;3.40;;;1.60;;
27003;SDS011;14546;47.590;19.022;2023-08-08T05:32:09;3.80;;;1.50;;
27003;SDS011;14546;47.590;19.022;2023-08-08T05:34:35;3.22;;;1.67;;
27003;SDS011;14546;47.590;19.022;2023-08-08T05:37:01;4.43;;;1.30;;
27003;SDS011;14546;47.590;19.022;2023-08-08T05:39:28;1.92;;;1.30;;
27003;SDS011;14546;47.590;19.022;2023-08-08T05:41:54;3.88;;;1.50;;
27003;SDS011;14546;47.590;19.022;2023-08-08T05:44:20;5.47;;;1.70;;
27003;SDS011;14546;47.590;19.022;2023-08-08T05:46:47;2.47;;;1.52;;
27003;SDS011;14546;47.590;19.022;2023-08-08T05:49:13;4.43;;;1.67;;
27003;SDS011;14546;47.590;19.022;2023-08-08T05:51:39;2.53;;;1.33;;
27003;SDS011;14546;47.590;19.022;2023-08-08T05:54:06;3.55;;;1.48;;
27003;SDS011;14546;47.590;19.022;2023-08-08T05:56:36;3.45;;;1.60;;
27003;SDS011;14546;47.590;19.022;2023-08-08T05:59:03;4.28;;;1.52;;
27003;SDS011;14546;47.590;19.022;2023-08-08T06:01:30;2.33;;;1.40;;
27003;SDS011;14546;47.590;19.022;2023-08-08T06:03:58;2.88;;;1.60;;
27003;SDS011;14546;47.590;19.022;2023-08-08T06:06:25;5.30;;;2.00;;
27003;SDS011;14546;47.590;19.022;2023-08-08T06:08:51;3.80;;;1.70;;
27003;SDS011;14546;47.590;19.022;2023-08-08T06:11:18;5.72;;;1.70;;
27003;SDS011;14546;47.590;19.022;2023-08-08T06:13:45;5.15;;;1.85;;
27003;SDS011;14546;47.590;19.022;2023-08-08T06:16:11;4.82;;;2.03;;
27003;SDS011;14546;47.590;19.022;2023-08-08T06:18:37;5.95;;;2.85;;
27003;SDS011;14546;47.590;19.022;2023-08-08T06:21:04;4.65;;;1.65;;
27003;SDS011;14546;47.590;19.022;2023-08-08T06:23:30;2.80;;;1.33;;
27003;SDS011;14546;47.590;19.022;2023-08-08T06:25:57;4.25;;;1.90;;
27003;SDS011;14546;47.590;19.022;2023-08-08T06:28:24;8.40;;;1.77;;
27003;SDS011;14546;47.590;19.022;2023-08-08T06:30:50;5.05;;;2.50;;
27003;SDS011;14546;47.590;19.022;2023-08-08T06:33:17;6.63;;;1.92;;
27003;SDS011;14546;47.590;19.022;2023-08-08T06:35:44;4.85;;;1.65;;
27003;SDS011;14546;47.590;19.022;2023-08-08T06:38:10;7.25;;;1.90;;
27003;SDS011;14546;47.590;19.022;2023-08-08T06:40:37;10.93;;;2.88;;
27003;SDS011;14546;47.590;19.022;2023-08-08T06:43:03;3.45;;;1.70;;
27003;SDS011;14546;47.590;19.022;2023-08-08T06:45:30;5.65;;;1.90;;
27003;SDS011;14546;47.590;19.022;2023-08-08T06:47:57;2.95;;;1.80;;
27003;SDS011;14546;47.590;19.022;2023-08-08T06:50:23;7.72;;;2.53;;
27003;SDS011;14546;47.590;19.022;2023-08-08T06:52:52;5.10;;;1.88;;
27003;SDS011;14546;47.590;19.022;2023-08-08T06:55:18;6.03;;;1.60;;
27003;SDS011;14546;47.590;19.022;2023-08-08T06:57:46;3.25;;;1.70;;
27003;SDS011;14546;47.590;19.022;2023-08-08T07:00:12;8.23;;;2.33;;
27003;SDS011;14546;47.590;19.022;2023-08-08T07:02:38;5.45;;;2.20;;
27003;SDS011;14546;47.590;19.022;2023-08-08T07:05:05;14.25;;;2.28;;
27003;SDS011;14546;47.590;19.022;2023-08-08T07:07:31;7.25;;;2.35;;
27003;SDS011;14546;47.590;19.022;2023-08-08T07:09:59;2.72;;;1.90;;
27003;SDS011;14546;47.590;19.022;2023-08-08T07:12:26;6.72;;;1.73;;
27003;SDS011;14546;47.590;19.022;2023-08-08T07:14:52;5.38;;;1.73;;
27003;SDS011;14546;47.590;19.022;2023-08-08T07:17:19;4.90;;;1.80;;
27003;SDS011;14546;47.590;19.022;2023-08-08T07:19:45;3.70;;;1.83;;
27003;SDS011;14546;47.590;19.022;2023-08-08T07:22:11;8.48;;;1.52;;
27003;SDS011;14546;47.590;19.022;2023-08-08T07:24:37;5.20;;;1.80;;
27003;SDS011;14546;47.590;19.022;2023-08-08T07:27:05;4.95;;;1.90;;
27003;SDS011;14546;47.590;19.022;2023-08-08T07:29:34;6.00;;;2.00;;
27003;SDS011;14546;47.590;19.022;2023-08-08T07:32:03;5.32;;;2.00;;
27003;SDS011;14546;47.590;19.022;2023-08-08T07:34:30;2.80;;;2.00;;
27003;SDS011;14546;47.590;19.022;2023-08-08T07:36:57;6.22;;;1.77;;
27003;SDS011;14546;47.590;19.022;2023-08-08T07:39:23;2.03;;;1.55;;
27003;SDS011;14546;47.590;19.022;2023-08-08T07:41:49;2.67;;;1.63;;
27003;SDS011;14546;47.590;19.022;2023-08-08T07:44:15;3.33;;;1.58;;
27003;SDS011;14546;47.590;19.022;2023-08-08T07:46:41;5.05;;;1.90;;
27003;SDS011;14546;47.590;19.022;2023-08-08T07:49:07;8.40;;;1.83;;
27003;SDS011;14546;47.590;19.022;2023-08-08T07:51:34;3.97;;;1.73;;
27003;SDS011;14546;47.590;19.022;2023-08-08T07:54:00;6.75;;;1.80;;
27003;SDS011;14546;47.590;19.022;2023-08-08T07:56:26;4.95;;;1.70;;
27003;SDS011;14546;47.590;19.022;2023-08-08T07:58:53;7.18;;;1.83;;
27003;SDS011;14546;47.590;19.022;2023-08-08T08:01:19;4.90;;;1.55;;
27003;SDS011;14546;47.590;19.022;2023-08-08T08:03:45;2.92;;;1.83;;
27003;SDS011;14546;47.590;19.022;2023-08-08T08:06:11;4.60;;;2.05;;
27003;SDS011;14546;47.590;19.022;2023-08-08T08:08:38;3.25;;;1.73;;
27003;SDS011;14546;47.590;19.022;2023-08-08T08:11:04;5.85;;;1.95;;
27003;SDS011;14546;47.590;19.022;2023-08-08T08:13:30;3.95;;;1.77;;
27003;SDS011;14546;47.590;19.022;2023-08-08T08:15:55;5.82;;;1.63;;
27003;SDS011;14546;47.590;19.022;2023-08-08T08:18:23;7.57;;;1.95;;
27003;SDS011;14546;47.590;19.022;2023-08-08T08:20:49;3.60;;;1.70;;
27003;SDS011;14546;47.590;19.022;2023-08-08T08:23:15;6.72;;;1.38;;
27003;SDS011;14546;47.590;19.022;2023-08-08T08:25:41;3.65;;;1.90;;
27003;SDS011;14546;47.590;19.022;2023-08-08T08:28:08;4.43;;;1.60;;
27003;SDS011;14546;47.590;19.022;2023-08-08T08:30:34;4.22;;;1.77;;
27003;SDS011;14546;47.590;19.022;2023-08-08T08:33:01;6.18;;;1.73;;
27003;SDS011;14546;47.590;19.022;2023-08-08T08:35:29;5.18;;;1.98;;
27003;SDS011;14546;47.590;19.022;2023-08-08T08:37:55;3.38;;;1.75;;
27003;SDS011;14546;47.590;19.022;2023-08-08T08:40:21;5.65;;;2.22;;
27003;SDS011;14546;47.590;19.022;2023-08-08T08:42:47;3.85;;;1.83;;
27003;SDS011;14546;47.590;19.022;2023-08-08T08:45:14;6.47;;;1.98;;
27003;SDS011;14546;47.590;19.022;2023-08-08T08:47:41;7.57;;;1.90;;
27003;SDS011;14546;47.590;19.022;2023-08-08T08:50:09;4.90;;;1.67;;
27003;SDS011;14546;47.590;19.022;2023-08-08T08:52:35;4.25;;;1.85;;
27003;SDS011;14546;47.590;19.022;2023-08-08T08:55:02;3.05;;;1.73;;
27003;SDS011;14546;47.590;19.022;2023-08-08T08:57:28;3.28;;;1.63;;
27003;SDS011;14546;47.590;19.022;2023-08-08T08:59:54;3.67;;;1.83;;
27003;SDS011;14546;47.590;19.022;2023-08-08T09:02:20;4.35;;;1.80;;
27003;SDS011;14546;47.590;19.022;2023-08-08T09:04:46;8.00;;;1.88;;
27003;SDS011;14546;47.590;19.022;2023-08-08T09:07:13;7.25;;;2.28;;
27003;SDS011;14546;47.590;19.022;2023-08-08T09:09:42;4.22;;;1.83;;
27003;SDS011;14546;47.590;19.022;2023-08-08T09:12:08;3.40;;;1.75;;
27003;SDS011;14546;47.590;19.022;2023-08-08T09:14:34;7.05;;;2.00;;
27003;SDS011;14546;47.590;19.022;2023-08-08T09:17:09;5.85;;;2.20;;
27003;SDS011;14546;47.590;19.022;2023-08-08T09:19:36;3.53;;;1.80;;
27003;SDS011;14546;47.590;19.022;2023-08-08T09:22:02;3.63;;;1.88;;
27003;SDS011;14546;47.590;19.022;2023-08-08T09:24:28;3.95;;;1.95;;
27003;SDS011;14546;47.590;19.022;2023-08-08T09:26:54;4.50;;;1.85;;
27003;SDS011;14546;47.590;19.022;2023-08-08T09:29:20;6.18;;;2.20;;
27003;SDS011;14546;47.590;19.022;2023-08-08T09:31:46;4.28;;;2.00;;
27003;SDS011;14546;47.590;19.022;2023-08-08T09:34:13;4.15;;;2.03;;
27003;SDS011;14546;47.590;19.022;2023-08-08T09:36:39;3.22;;;1.85;;
27003;SDS011;14546;47.590;19.022;2023-08-08T09:39:06;7.57;;;1.63;;
27003;SDS011;14546;47.590;19.022;2023-08-08T09:41:32;6.93;;;1.70;;
27003;SDS011;14546;47.590;19.022;2023-08-08T09:43:58;5.07;;;1.88;;
27003;SDS011;14546;47.590;19.022;2023-08-08T09:46:24;5.82;;;2.38;;
27003;SDS011;14546;47.590;19.022;2023-08-08T09:48:51;2.80;;;1.92;;
27003;SDS011;14546;47.590;19.022;2023-08-08T09:51:17;4.30;;;1.63;;
27003;SDS011;14546;47.590;19.022;2023-08-08T09:53:43;4.55;;;1.80;;
27003;SDS011;14546;47.590;19.022;2023-08-08T09:56:11;12.50;;;1.85;;
27003;SDS011;14546;47.590;19.022;2023-08-08T09:58:38;8.25;;;2.10;;
27003;SDS011;14546;47.590;19.022;2023-08-08T10:01:04;3.08;;;1.83;;
27003;SDS011;14546;47.590;19.022;2023-08-08T10:03:31;6.10;;;2.25;;
27003;SDS011;14546;47.590;19.022;2023-08-08T10:05:58;2.55;;;1.50;;
27003;SDS011;14546;47.590;19.022;2023-08-08T10:08:24;4.95;;;1.98;;
27003;SDS011;14546;47.590;19.022;2023-08-08T10:10:50;5.13;;;1.60;;
27003;SDS011;14546;47.590;19.022;2023-08-08T10:13:23;3.90;;;1.45;;
27003;SDS011;14546;47.590;19.022;2023-08-08T10:15:49;5.60;;;1.67;;
27003;SDS011;14546;47.590;19.022;2023-08-08T10:18:16;2.70;;;1.48;;
27003;SDS011;14546;47.590;19.022;2023-08-08T10:20:43;5.32;;;1.75;;
27003;SDS011;14546;47.590;19.022;2023-08-08T10:23:10;5.57;;;1.50;;
27003;SDS011;14546;47.590;19.022;2023-08-08T10:25:36;6.63;;;1.75;;
27003;SDS011;14546;47.590;19.022;2023-08-08T10:30:48;6.28;;;2.20;;
27003;SDS011;14546;47.590;19.022;2023-08-08T10:33:17;2.97;;;1.85;;
27003;SDS011;14546;47.590;19.022;2023-08-08T10:38:22;4.95;;;1.58;;
27003;SDS011;14546;47.590;19.022;2023-08-08T10:40:53;6.43;;;1.75;;
27003;SDS011;14546;47.590;19.022;2023-08-08T10:43:24;3.65;;;1.77;;
27003;SDS011;14546;47.590;19.022;2023-08-08T10:45:50;8.98;;;1.73;;
27003;SDS011;14546;47.590;19.022;2023-08-08T10:48:16;6.88;;;2.00;;
27003;SDS011;14546;47.590;19.022;2023-08-08T10:50:45;4.45;;;1.90;;
27003;SDS011;14546;47.590;19.022;2023-08-08T10:53:12;2.55;;;1.42;;
27003;SDS011;14546;47.590;19.022;2023-08-08T10:55:38;1.95;;;1.58;;
27003;SDS011;14546;47.590;19.022;2023-08-08T11:00:31;2.72;;;1.60;;
27003;SDS011;14546;47.590;19.022;2023-08-08T11:02:57;2.45;;;1.50;;
27003;SDS011;14546;47.590;19.022;2023-08-08T11:05:23;3.05;;;1.50;;
27003;SDS011;14546;47.590;19.022;2023-08-08T11:07:51;3.38;;;1.77;;
27003;SDS011;14546;47.590;19.022;2023-08-08T11:10:17;4.00;;;1.60;;
27003;SDS011;14546;47.590;19.022;2023-08-08T11:13:02;1.98;;;1.33;;
27003;SDS011;14546;47.590;19.022;2023-08-08T11:15:29;3.67;;;1.45;;
27003;SDS011;14546;47.590;19.022;2023-08-08T11:17:56;4.35;;;1.60;;
27003;SDS011;14546;47.590;19.022;2023-08-08T11:20:22;3.05;;;1.45;;
27003;SDS011;14546;47.590;19.022;2023-08-08T11:22:53;3.17;;;1.48;;
27003;SDS011;14546;47.590;19.022;2023-08-08T11:25:20;5.18;;;1.70;;
27003;SDS011;14546;47.590;19.022;2023-08-08T11:27:49;3.30;;;1.70;;
27003;SDS011;14546;47.590;19.022;2023-08-08T11:30:16;5.05;;;1.95;;
27003;SDS011;14546;47.590;19.022;2023-08-08T11:32:42;3.58;;;1.67;;
27003;SDS011;14546;47.590;19.022;2023-08-08T11:35:08;2.60;;;1.50;;
27003;SDS011;14546;47.590;19.022;2023-08-08T11:37:34;4.68;;;1.45;;
27003;SDS011;14546;47.590;19.022;2023-08-08T11:40:01;3.30;;;1.60;;
27003;SDS011;14546;47.590;19.022;2023-08-08T11:42:30;2.13;;;1.63;;
27003;SDS011;14546;47.590;19.022;2023-08-08T11:44:56;4.13;;;1.55;;
27003;SDS011;14546;47.590;19.022;2023-08-08T11:47:25;6.07;;;1.85;;
27003;SDS011;14546;47.590;19.022;2023-08-08T11:49:51;4.38;;;1.63;;
27003;SDS011;14546;47.590;19.022;2023-08-08T11:52:18;5.22;;;1.30;;
27003;SDS011;14546;47.590;19.022;2023-08-08T11:54:50;2.97;;;1.73;;
27003;SDS011;14546;47.590;19.022;2023-08-08T11:57:17;2.90;;;1.60;;
27003;SDS011;14546;47.590;19.022;2023-08-08T11:59:43;5.25;;;1.48;;
27003;SDS011;14546;47.590;19.022;2023-08-08T12:02:09;2.58;;;1.20;;
27003;SDS011;14546;47.590;19.022;2023-08-08T12:04:35;4.15;;;1.60;;
27003;SDS011;14546;47.590;19.022;2023-08-08T12:07:01;3.30;;;1.30;;
27003;SDS011;14546;47.590;19.022;2023-08-08T12:09:31;5.45;;;1.67;;
27003;SDS011;14546;47.590;19.022;2023-08-08T12:12:01;3.88;;;1.73;;
27003;SDS011;14546;47.590;19.022;2023-08-08T12:14:28;5.43;;;1.50;;
27003;SDS011;14546;47.590;19.022;2023-08-08T12:16:54;2.45;;;1.67;;
27003;SDS011;14546;47.590;19.022;2023-08-08T12:19:23;3.65;;;1.52;;
27003;SDS011;14546;47.590;19.022;2023-08-08T12:21:50;4.88;;;1.80;;
27003;SDS011;14546;47.590;19.022;2023-08-08T12:24:16;8.73;;;1.88;;
27003;SDS011;14546;47.590;19.022;2023-08-08T12:26:42;4.30;;;1.90;;
27003;SDS011;14546;47.590;19.022;2023-08-08T12:29:08;3.13;;;1.73;;
27003;SDS011;14546;47.590;19.022;2023-08-08T12:31:34;4.03;;;1.58;;
27003;SDS011;14546;47.590;19.022;2023-08-08T12:34:00;2.97;;;1.83;;
27003;SDS011;14546;47.590;19.022;2023-08-08T12:36:27;3.60;;;1.50;;
27003;SDS011;14546;47.590;19.022;2023-08-08T12:38:53;2.97;;;1.48;;
27003;SDS011;14546;47.590;19.022;2023-08-08T12:41:19;5.80;;;1.58;;
27003;SDS011;14546;47.590;19.022;2023-08-08T12:43:45;4.18;;;1.60;;
27003;SDS011;14546;47.590;19.022;2023-08-08T12:46:12;4.13;;;1.60;;
27003;SDS011;14546;47.590;19.022;2023-08-08T12:48:38;2.42;;;1.27;;
27003;SDS011;14546;47.590;19.022;2023-08-08T12:51:05;13.27;;;1.95;;
27003;SDS011;14546;47.590;19.022;2023-08-08T12:53:35;5.25;;;1.50;;
27003;SDS011;14546;47.590;19.022;2023-08-08T12:56:02;3.40;;;1.63;;
27003;SDS011;14546;47.590;19.022;2023-08-08T12:58:28;1.67;;;1.35;;
27003;SDS011;14546;47.590;19.022;2023-08-08T13:00:56;3.63;;;1.60;;
27003;SDS011;14546;47.590;19.022;2023-08-08T13:03:23;10.70;;;2.25;;
27003;SDS011;14546;47.590;19.022;2023-08-08T13:05:49;2.95;;;1.60;;
27003;SDS011;14546;47.590;19.022;2023-08-08T13:08:15;1.67;;;1.10;;
27003;SDS011;14546;47.590;19.022;2023-08-08T13:10:42;4.68;;;1.50;;
27003;SDS011;14546;47.590;19.022;2023-08-08T13:13:09;3.08;;;1.70;;
27003;SDS011;14546;47.590;19.022;2023-08-08T13:15:35;2.28;;;1.55;;
27003;SDS011;14546;47.590;19.022;2023-08-08T13:18:01;7.72;;;1.50;;
27003;SDS011;14546;47.590;19.022;2023-08-08T13:20:27;5.28;;;1.73;;
27003;SDS011;14546;47.590;19.022;2023-08-08T13:22:53;3.40;;;1.52;;
27003;SDS011;14546;47.590;19.022;2023-08-08T13:25:19;3.58;;;1.48;;
27003;SDS011;14546;47.590;19.022;2023-08-08T13:27:46;2.35;;;1.50;;
27003;SDS011;14546;47.590;19.022;2023-08-08T13:30:14;4.38;;;1.58;;
27003;SDS011;14546;47.590;19.022;2023-08-08T13:32:42;3.55;;;1.40;;
27003;SDS011;14546;47.590;19.022;2023-08-08T13:35:08;5.32;;;1.65;;
27003;SDS011;14546;47.590;19.022;2023-08-08T13:37:35;2.20;;;1.50;;
27003;SDS011;14546;47.590;19.022;2023-08-08T13:40:03;2.17;;;1.48;;
27003;SDS011;14546;47.590;19.022;2023-08-08T13:42:29;5.00;;;1.60;;
27003;SDS011;14546;47.590;19.022;2023-08-08T13:44:55;2.38;;;1.38;;
27003;SDS011;14546;47.590;19.022;2023-08-08T13:47:21;2.58;;;1.60;;
27003;SDS011;14546;47.590;19.022;2023-08-08T13:49:47;2.45;;;1.55;;
27003;SDS011;14546;47.590;19.022;2023-08-08T13:52:13;6.07;;;1.80;;
27003;SDS011;14546;47.590;19.022;2023-08-08T13:54:39;2.85;;;1.40;;
27003;SDS011;14546;47.590;19.022;2023-08-08T13:57:05;3.35;;;1.63;;
27003;SDS011;14546;47.590;19.022;2023-08-08T13:59:31;3.97;;;1.80;;
27003;SDS011;14546;47.590;19.022;2023-08-08T14:01:57;9.93;;;1.90;;
27003;SDS011;14546;47.590;19.022;2023-08-08T14:04:23;15.00;;;2.22;;
27003;SDS011;14546;47.590;19.022;2023-08-08T14:06:49;8.10;;;2.15;;
27003;SDS011;14546;47.590;19.022;2023-08-08T14:09:15;2.90;;;1.70;;
27003;SDS011;14546;47.590;19.022;2023-08-08T14:11:41;6.13;;;1.88;;
27003;SDS011;14546;47.590;19.022;2023-08-08T14:14:07;22.05;;;3.33;;
27003;SDS011;14546;47.590;19.022;2023-08-08T14:16:33;10.98;;;1.92;;
27003;SDS011;14546;47.590;19.022;2023-08-08T14:18:59;7.18;;;1.67;;
27003;SDS011;14546;47.590;19.022;2023-08-08T14:21:25;11.35;;;1.90;;
27003;SDS011;14546;47.590;19.022;2023-08-08T14:23:51;3.15;;;1.45;;
27003;SDS011;14546;47.590;19.022;2023-08-08T14:26:17;8.15;;;1.48;;
27003;SDS011;14546;47.590;19.022;2023-08-08T14:28:43;1.77;;;1.30;;
27003;SDS011;14546;47.590;19.022;2023-08-08T14:31:09;3.33;;;1.30;;
27003;SDS011;14546;47.590;19.022;2023-08-08T14:33:35;3.92;;;1.35;;
27003;SDS011;14546;47.590;19.022;2023-08-08T14:36:02;3.72;;;1.40;;
27003;SDS011;14546;47.590;19.022;2023-08-08T14:38:28;2.75;;;1.30;;
27003;SDS011;14546;47.590;19.022;2023-08-08T14:40:54;2.20;;;1.60;;